Time;durP1;ratioP1;P1;durP2;ratioP2;P2;SDS_P1;SDS_P2;PMS_P1;PMS_P2;Temp;Humidity;BMP_temperature;BMP_pressure;BME280_temperature;BME280_humidity;BME280_pressure;Samples;Min_cycle;Max_cycle;Signal;HPM_P1;HPM_P2
2023/01/15 00:00:55;;;;;;;8.90;1.43;;;;;;;14.67;44.36;99870.38;5042196;28;20024;-72
2023/01/15 00:03:21;;;;;;;8.43;2.17;;;;;;;14.11;45.51;99865.63;5043896;28;20024;-72
2023/01/15 00:05:46;;;;;;;10.43;1.53;;;;;;;13.26;46.61;99882.78;5051559;28;20657;-73
2023/01/15 00:08:11;;;;;;;10.50;1.90;;;;;;;14.37;45.52;99881.19;5048508;28;20452;-72
2023/01/15 00:10:37;;;;;;;16.13;2.30;;;;;;;15.01;44.86;99873.31;5044464;28;20033;-73
2023/01/15 00:13:02;;;;;;;8.33;1.70;;;;;;;13.38;46.52;99861.38;5048254;28;20083;-73
2023/01/15 00:15:28;;;;;;;7.27;1.50;;;;;;;15.01;44.38;99875.94;5047633;28;20133;-72
2023/01/15 00:17:53;;;;;;;15.33;2.23;;;;;;;14.63;45.23;99874.03;5049027;28;20025;-72
2023/01/15 00:20:18;;;;;;;20.23;1.70;;;;;;;14.25;44.87;99865.94;5035806;28;20035;-73
2023/01/15 00:22:44;;;;;;;15.40;1.87;;;;;;;14.59;44.63;99859.28;5045712;28;20072;-73
2023/01/15 00:27:54;;;;;;;17.77;2.10;;;;;;;14.00;45.92;99847.66;5043233;28;20138;-72
2023/01/15 00:30:20;;;;;;;17.83;1.87;;;;;;;14.35;45.29;99863.78;5039205;28;20706;-73
2023/01/15 00:32:45;;;;;;;13.93;1.83;;;;;;;14.25;45.11;99848.38;5030103;28;20064;-72
2023/01/15 00:35:17;;;;;;;14.97;1.93;;;;;;;14.30;45.45;99856.09;5074338;28;20040;-73
2023/01/15 00:37:42;;;;;;;15.83;1.60;;;;;;;14.66;44.30;99850.25;5049825;28;20473;-72
2023/01/15 00:40:09;;;;;;;14.37;1.83;;;;;;;13.18;45.90;99859.44;5050216;28;20194;-73
2023/01/15 00:42:34;;;;;;;13.10;1.67;;;;;;;13.64;44.56;99851.69;5048441;28;20511;-73
2023/01/15 00:45:06;;;;;;;16.80;1.83;;;;;;;15.00;43.01;99872.47;5043365;28;20040;-73
2023/01/15 00:47:31;;;;;;;16.45;1.98;;;;;;;14.56;43.39;99862.03;5049090;28;20037;-73
2023/01/15 00:49:57;;;;;;;14.17;1.70;;;;;;;15.03;42.83;99859.16;5030791;28;20082;-72
2023/01/15 00:52:22;;;;;;;10.23;1.90;;;;;;;14.91;42.79;99859.72;5048436;28;20078;-72
2023/01/15 00:54:47;;;;;;;13.03;2.47;;;;;;;14.95;42.77;99858.66;5049934;28;20361;-73
2023/01/15 00:57:13;;;;;;;14.97;2.10;;;;;;;14.68;43.25;99861.53;5049829;28;20124;-72
2023/01/15 00:59:38;;;;;;;16.03;2.47;;;;;;;14.06;44.22;99850.88;5048886;28;20022;-73
2023/01/15 01:02:04;;;;;;;8.60;1.57;;;;;;;14.01;44.44;99859.88;5049120;28;20446;-73
2023/01/15 01:04:29;;;;;;;15.60;1.87;;;;;;;14.17;43.97;99855.72;5048419;28;20038;-72
2023/01/15 01:06:54;;;;;;;14.03;1.70;;;;;;;14.52;42.97;99860.44;5081323;28;20033;-73
2023/01/15 01:09:20;;;;;;;11.87;1.80;;;;;;;14.28;43.34;99863.16;5048251;28;20325;-71
2023/01/15 01:11:48;;;;;;;14.90;1.83;;;;;;;15.51;40.87;99853.53;5039273;28;20044;-72
2023/01/15 01:14:14;;;;;;;13.07;1.73;;;;;;;15.46;41.23;99863.44;5044109;28;20113;-71
2023/01/15 01:16:41;;;;;;;9.50;3.03;;;;;;;15.01;42.05;99868.91;5031440;28;20049;-71
2023/01/15 01:19:10;;;;;;;13.77;1.53;;;;;;;14.76;42.56;99859.44;5047400;28;20036;-72
2023/01/15 01:21:37;;;;;;;13.37;2.57;;;;;;;14.53;42.98;99883.19;5048940;28;20029;-71
2023/01/15 01:24:03;;;;;;;11.10;1.47;;;;;;;14.87;42.05;99866.03;5046915;28;20143;-72
2023/01/15 01:26:29;;;;;;;11.47;3.37;;;;;;;13.84;44.56;99868.44;5081789;28;20127;-72
2023/01/15 01:28:56;;;;;;;13.20;2.00;;;;;;;14.92;42.52;99870.16;5049334;28;20571;-72
2023/01/15 01:31:22;;;;;;;13.07;2.33;;;;;;;14.05;43.70;99867.59;5049400;28;20025;-72
2023/01/15 01:33:49;;;;;;;15.83;2.23;;;;;;;15.19;41.31;99874.28;5048074;28;20116;-72
2023/01/15 01:36:15;;;;;;;14.13;1.97;;;;;;;14.97;42.38;99872.56;5036064;28;20026;-72
2023/01/15 01:38:40;;;;;;;12.03;2.00;;;;;;;14.23;43.24;99867.75;5030151;28;20031;-71
2023/01/15 01:41:06;;;;;;;16.57;2.00;;;;;;;13.64;43.30;99871.81;5037722;28;20032;-71
2023/01/15 01:44:01;;;;;;;10.30;2.10;;;;;;;14.02;43.12;99865.06;5048828;28;20140;-71
2023/01/15 01:46:32;;;;;;;10.10;1.47;;;;;;;13.22;44.52;99878.56;5038267;28;20033;-72
2023/01/15 01:49:10;;;;;;;10.00;1.97;;;;;;;13.84;44.36;99871.06;5042453;28;20049;-72
2023/01/15 01:51:45;;;;;;;11.20;1.70;;;;;;;13.53;44.63;99869.59;5046965;28;20079;-72
2023/01/15 01:54:14;;;;;;;12.47;1.37;;;;;;;14.60;43.03;99874.13;5028557;28;20029;-71
2023/01/15 01:56:40;;;;;;;17.60;2.90;;;;;;;14.06;43.63;99861.41;5044809;28;20481;-72
2023/01/15 01:59:07;;;;;;;17.80;3.40;;;;;;;13.30;43.64;99884.41;5037728;28;20147;-72
2023/01/15 02:01:33;;;;;;;12.63;2.23;;;;;;;13.77;43.67;99882.72;5028610;28;20033;-72
2023/01/15 02:03:59;;;;;;;13.67;1.77;;;;;;;14.21;42.98;99877.47;5045380;28;20503;-72
2023/01/15 02:06:26;;;;;;;14.73;1.87;;;;;;;14.60;41.61;99871.50;5045220;28;20124;-72
2023/01/15 02:08:52;;;;;;;12.90;1.60;;;;;;;13.10;44.47;99886.88;5046741;28;20056;-71
2023/01/15 02:11:23;;;;;;;11.43;1.97;;;;;;;13.90;43.70;99870.81;5040332;28;20123;-72
2023/01/15 02:13:57;;;;;;;15.30;2.30;;;;;;;13.63;43.51;99875.34;5046663;28;20035;-72
2023/01/15 02:16:34;;;;;;;10.90;1.80;;;;;;;14.20;42.94;99865.25;5046820;28;20036;-72
2023/01/15 02:19:18;;;;;;;11.30;2.07;;;;;;;13.47;42.90;99872.44;5047917;28;20106;-72
2023/01/15 02:22:06;;;;;;;12.23;1.90;;;;;;;14.16;42.72;99863.66;5048214;28;20029;-72
2023/01/15 02:24:56;;;;;;;15.10;2.23;;;;;;;15.24;40.61;99843.34;5049477;28;20546;-72
2023/01/15 02:27:23;;;;;;;17.07;1.90;;;;;;;14.25;42.69;99864.16;5047250;28;20086;-72
2023/01/15 02:29:52;;;;;;;12.77;2.20;;;;;;;13.65;43.26;99858.63;5049496;28;20060;-72
2023/01/15 02:32:27;;;;;;;24.57;2.47;;;;;;;14.50;42.12;99860.50;5046052;28;20524;-71
2023/01/15 02:34:56;;;;;;;20.33;1.90;;;;;;;14.40;42.33;99852.16;5027886;28;20032;-72
2023/01/15 02:37:29;;;;;;;11.73;1.93;;;;;;;15.10;40.93;99851.88;5037045;28;20393;-72
2023/01/15 02:39:57;;;;;;;14.27;1.92;;;;;;;14.32;42.15;99864.75;5046950;28;20025;-72
2023/01/15 02:42:26;;;;;;;15.50;1.90;;;;;;;13.99;43.12;99859.94;5047339;28;20036;-72
2023/01/15 02:44:54;;;;;;;16.97;2.03;;;;;;;13.33;44.52;99868.53;5048631;28;20037;-72
2023/01/15 02:47:26;;;;;;;8.17;1.13;;;;;;;12.66;45.41;99870.00;5047009;28;20025;-72
2023/01/15 02:49:55;;;;;;;10.50;1.90;;;;;;;14.37;42.58;99878.56;5046600;28;20064;-72
2023/01/15 02:52:33;;;;;;;11.70;1.77;;;;;;;12.96;44.78;99859.38;5046413;28;20032;-72
2023/01/15 02:55:09;;;;;;;8.23;1.80;;;;;;;13.48;44.12;99867.16;5031219;28;20033;-72
2023/01/15 02:57:37;;;;;;;9.47;1.80;;;;;;;13.58;43.88;99851.91;5048099;28;20114;-72
2023/01/15 03:00:09;;;;;;;14.60;2.70;;;;;;;13.59;43.92;99853.63;5055036;28;20357;-72
2023/01/15 03:03:00;;;;;;;11.73;1.30;;;;;;;13.83;42.79;99856.19;5049298;28;20033;-71
2023/01/15 03:05:32;;;;;;;16.60;2.30;;;;;;;14.33;41.95;99855.97;5046522;28;20053;-72
2023/01/15 03:08:03;;;;;;;13.35;2.55;;;;;;;13.60;43.64;99852.72;5051576;28;20373;-72
2023/01/15 03:10:45;;;;;;;11.50;2.73;;;;;;;13.37;43.46;99864.91;5053328;28;20067;-71
2023/01/15 03:13:20;;;;;;;12.50;2.03;;;;;;;14.30;42.15;99856.09;5036104;28;20063;-72
2023/01/15 03:19:21;;;;;;;16.13;2.23;;;;;;;13.13;43.26;99863.16;5042094;28;20550;-72
2023/01/15 03:22:32;;;;;;;10.93;2.30;;;;;;;13.86;43.23;99835.06;5050687;28;20041;-72
2023/01/15 03:25:24;;;;;;;12.80;1.57;;;;;;;14.30;42.81;99840.31;5032349;28;20046;-72
2023/01/15 03:27:54;;;;;;;13.70;1.60;;;;;;;14.60;41.86;99837.31;5032641;28;20033;-72
2023/01/15 03:30:21;;;;;;;15.00;2.20;;;;;;;13.89;42.96;99829.72;5044622;28;20036;-72
2023/01/15 03:32:47;;;;;;;21.57;1.90;;;;;;;13.32;44.65;99840.56;5080221;28;20396;-73
2023/01/15 03:35:45;;;;;;;15.07;1.77;;;;;;;14.30;43.06;99845.56;5049753;28;20029;-71
2023/01/15 03:38:17;;;;;;;10.50;1.67;;;;;;;13.26;44.62;99843.44;5051733;28;20029;-72
2023/01/15 03:41:10;;;;;;;9.97;1.50;;;;;;;13.98;43.29;99836.34;5048583;28;20025;-72
2023/01/15 03:43:50;;;;;;;11.50;1.83;;;;;;;13.06;44.89;99845.03;5042169;28;20055;-71
2023/01/15 03:46:26;;;;;;;20.10;2.30;;;;;;;13.55;44.02;99842.38;5049293;28;20036;-72
2023/01/15 03:48:57;;;;;;;13.03;1.50;;;;;;;13.89;43.92;99829.72;5059449;28;20473;-72
2023/01/15 03:51:29;;;;;;;10.57;1.67;;;;;;;14.75;41.96;99826.19;5047369;28;20096;-72
2023/01/15 03:53:57;;;;;;;8.02;1.48;;;;;;;13.94;43.68;99832.13;5041696;28;20033;-72
2023/01/15 03:56:36;;;;;;;17.43;2.10;;;;;;;13.90;43.59;99834.03;5049385;28;20530;-72
2023/01/15 03:59:12;;;;;;;13.17;2.67;;;;;;;12.82;45.36;99840.66;5049607;28;20073;-72
2023/01/15 04:01:41;;;;;;;18.70;2.10;;;;;;;13.39;44.19;99831.59;5048989;28;20036;-72
2023/01/15 04:04:09;;;;;;;17.00;2.57;;;;;;;14.21;42.56;99830.19;5070321;28;20413;-72
2023/01/15 04:06:39;;;;;;;11.23;1.70;;;;;;;14.13;42.66;99837.53;5071084;28;20136;-72
2023/01/15 04:09:07;;;;;;;10.83;1.53;;;;;;;13.40;43.54;99843.78;5049595;28;20044;-72
2023/01/15 04:11:33;;;;;;;13.27;2.13;;;;;;;13.65;44.17;99842.03;5043314;28;20102;-72
2023/01/15 04:13:58;;;;;;;10.03;1.60;;;;;;;14.06;43.38;99836.91;5049371;28;20036;-72
2023/01/15 04:16:28;;;;;;;16.93;1.70;;;;;;;13.63;43.33;99839.44;5049708;28;20029;-71
2023/01/15 04:18:54;;;;;;;8.10;1.50;;;;;;;13.95;43.35;99837.34;5080552;28;20627;-72
2023/01/15 04:21:20;;;;;;;15.73;2.00;;;;;;;13.49;44.40;99844.34;5047611;28;20108;-72
2023/01/15 04:23:46;;;;;;;14.97;1.83;;;;;;;13.13;44.60;99852.66;5049003;28;20032;-71
2023/01/15 04:26:12;;;;;;;10.17;1.43;;;;;;;12.75;45.53;99850.50;5050596;28;20094;-73
2023/01/15 04:28:37;;;;;;;10.77;1.80;;;;;;;13.87;43.61;99839.41;5043594;28;20056;-72
2023/01/15 04:31:03;;;;;;;17.70;2.07;;;;;;;13.83;43.71;99840.44;5066234;28;20477;-72
2023/01/15 04:33:28;;;;;;;14.97;2.00;;;;;;;14.92;42.18;99837.75;5050320;28;20037;-73
2023/01/15 04:35:54;;;;;;;17.63;1.63;;;;;;;13.10;44.72;99834.41;5049955;28;20132;-73
2023/01/15 04:38:19;;;;;;;15.93;1.73;;;;;;;13.52;43.79;99831.13;5048476;28;20020;-72
2023/01/15 04:46:13;;;;;;;11.10;1.53;;;;;;;12.73;44.65;99841.81;5031336;28;20047;-72
2023/01/15 04:48:39;;;;;;;11.80;1.87;;;;;;;12.92;44.46;99839.41;5045288;28;20048;-72
2023/01/15 04:51:05;;;;;;;14.27;1.63;;;;;;;13.41;42.98;99836.78;5048407;28;20404;-72
2023/01/15 04:53:31;;;;;;;9.93;2.00;;;;;;;13.02;44.12;99838.19;5047759;28;20049;-72
2023/01/15 04:56:04;;;;;;;9.90;1.90;;;;;;;13.44;42.83;99827.94;5050099;28;20113;-72
2023/01/15 04:58:30;;;;;;;13.03;2.70;;;;;;;12.68;43.94;99830.63;5051776;28;20099;-71
2023/01/15 05:00:56;;;;;;;10.43;1.20;;;;;;;13.39;42.43;99826.34;5045857;28;20036;-73
2023/01/15 05:03:21;;;;;;;9.30;1.40;;;;;;;13.96;41.53;99820.66;5040217;28;20447;-72
2023/01/15 05:05:47;;;;;;;13.43;1.60;;;;;;;13.82;41.42;99825.59;5049516;28;20512;-72
2023/01/15 05:08:12;;;;;;;15.47;2.20;;;;;;;13.16;41.86;99839.41;5036312;28;20021;-72
2023/01/15 05:10:37;;;;;;;9.37;1.77;;;;;;;14.79;39.80;99820.78;5049775;28;20095;-71
2023/01/15 05:13:03;;;;;;;9.67;1.37;;;;;;;13.63;40.53;99823.69;5036681;28;20083;-72
2023/01/15 05:15:28;;;;;;;5.80;0.80;;;;;;;12.48;42.05;99828.69;5030733;28;20503;-72
2023/01/15 05:17:55;;;;;;;9.87;1.53;;;;;;;13.53;39.91;99827.56;5044715;28;20132;-72
2023/01/15 05:20:20;;;;;;;16.83;1.30;;;;;;;13.12;40.36;99811.59;5030310;28;20105;-72
2023/01/15 05:22:45;;;;;;;8.03;1.37;;;;;;;13.94;39.16;99817.22;5034399;28;20033;-71
2023/01/15 05:25:14;;;;;;;11.97;1.60;;;;;;;13.93;39.26;99820.78;5028377;28;20485;-72
2023/01/15 05:27:39;;;;;;;11.70;1.53;;;;;;;14.07;38.87;99823.69;5030603;28;20048;-72
2023/01/15 05:30:05;;;;;;;11.13;1.57;;;;;;;13.40;40.28;99816.69;5071381;28;20028;-72
2023/01/15 05:32:31;;;;;;;6.93;1.43;;;;;;;12.74;40.57;99817.31;5035140;28;20329;-72
2023/01/15 05:34:56;;;;;;;14.73;1.40;;;;;;;15.03;37.88;99809.16;5042143;28;20112;-72
2023/01/15 05:37:22;;;;;;;15.17;1.70;;;;;;;13.83;39.33;99811.56;5047262;28;20078;-72
2023/01/15 05:39:47;;;;;;;10.27;1.70;;;;;;;14.33;39.01;99821.78;5046328;28;20108;-72
2023/01/15 05:42:12;;;;;;;14.90;2.17;;;;;;;14.28;39.26;99815.84;5038465;28;20026;-71
2023/01/15 05:44:38;;;;;;;5.33;0.83;;;;;;;13.49;39.70;99815.47;5044025;28;20106;-72
2023/01/15 05:47:04;;;;;;;10.07;1.97;;;;;;;13.96;39.52;99815.41;5048582;28;20040;-72
2023/01/15 05:49:30;;;;;;;7.80;1.23;;;;;;;13.46;40.89;99819.06;5048882;28;20028;-71
2023/01/15 05:51:57;;;;;;;10.63;1.57;;;;;;;13.60;41.07;99829.06;5062592;28;20036;-71
2023/01/15 05:54:25;;;;;;;14.93;2.40;;;;;;;13.41;41.59;99834.16;5043477;28;20028;-71
2023/01/15 05:56:51;;;;;;;7.00;1.67;;;;;;;14.02;41.97;99830.06;5042859;28;20026;-71
2023/01/15 05:59:20;;;;;;;13.33;1.77;;;;;;;14.78;40.05;99829.59;5045283;28;20087;-71
2023/01/15 06:01:46;;;;;;;10.57;1.87;;;;;;;13.07;41.94;99820.47;5045030;28;20398;-71
2023/01/15 06:04:13;;;;;;;13.67;2.10;;;;;;;13.86;41.90;99829.81;5047479;28;20025;-72
2023/01/15 06:06:39;;;;;;;8.33;1.53;;;;;;;13.18;42.42;99816.63;5045737;28;20045;-71
2023/01/15 06:09:05;;;;;;;14.77;1.57;;;;;;;12.46;43.75;99833.13;5040013;28;20025;-71
2023/01/15 06:11:30;;;;;;;8.40;1.20;;;;;;;13.09;42.30;99843.19;5053643;28;20038;-71
2023/01/15 06:13:56;;;;;;;14.43;1.00;;;;;;;11.77;41.99;99847.50;5046763;28;20044;-72
2023/01/15 06:16:21;;;;;;;11.93;1.87;;;;;;;11.99;41.97;99855.59;5049733;28;20028;-72
2023/01/15 06:18:47;;;;;;;11.07;1.10;;;;;;;12.00;42.50;99849.44;5052544;28;20451;-71
2023/01/15 06:21:13;;;;;;;15.30;1.60;;;;;;;12.89;40.53;99852.63;5027392;28;20493;-71
2023/01/15 06:23:40;;;;;;;10.40;1.70;;;;;;;13.19;40.24;99860.31;5032456;28;20064;-74
2023/01/15 06:26:11;;;;;;;4.70;0.87;;;;;;;12.87;40.55;99855.31;5080308;28;20117;-72
2023/01/15 06:28:36;;;;;;;11.90;1.70;;;;;;;13.38;39.98;99863.13;5048427;28;20033;-73
2023/01/15 06:31:07;;;;;;;9.83;1.63;;;;;;;13.96;39.20;99852.19;5052042;28;20028;-72
2023/01/15 06:33:32;;;;;;;9.03;1.80;;;;;;;13.25;40.31;99860.09;5051919;28;20519;-74
2023/01/15 06:36:01;;;;;;;13.73;1.90;;;;;;;13.52;38.72;99857.41;5036809;28;20045;-72
2023/01/15 06:38:26;;;;;;;9.50;1.83;;;;;;;12.77;41.53;99864.38;5050723;28;20131;-72
2023/01/15 06:40:51;;;;;;;10.67;1.40;;;;;;;13.71;40.44;99857.53;5036091;28;20549;-72
2023/01/15 06:48:46;;;;;;;7.23;1.93;;;;;;;12.22;42.07;99854.00;5052910;28;20079;-73
2023/01/15 06:51:14;;;;;;;8.93;1.10;;;;;;;12.93;41.33;99854.22;5047728;28;20100;-72
2023/01/15 06:53:40;;;;;;;9.53;1.60;;;;;;;12.09;41.96;99840.44;5037342;28;20040;-72
2023/01/15 06:56:05;;;;;;;7.10;1.03;;;;;;;11.93;42.77;99841.81;5049830;28;20500;-72
2023/01/15 06:58:31;;;;;;;4.90;1.43;;;;;;;12.89;41.56;99842.13;5053514;28;20031;-73
2023/01/15 07:00:56;;;;;;;9.37;1.53;;;;;;;12.01;42.77;99838.06;5051467;28;20027;-73
2023/01/15 07:03:22;;;;;;;15.40;1.87;;;;;;;13.03;41.28;99839.88;5050772;28;20025;-72
2023/01/15 07:05:48;;;;;;;13.60;1.43;;;;;;;12.27;41.97;99835.50;5040231;28;20060;-72
2023/01/15 07:08:13;;;;;;;7.03;2.50;;;;;;;12.20;41.99;99829.63;5047805;28;20037;-71
2023/01/15 07:10:40;;;;;;;11.13;1.50;;;;;;;12.91;40.64;99848.16;5044614;28;20040;-72
2023/01/15 07:13:06;;;;;;;10.27;1.13;;;;;;;11.65;42.68;99845.25;5062811;28;20040;-72
2023/01/15 07:15:31;;;;;;;12.47;1.33;;;;;;;12.27;42.12;99838.97;5037970;28;20037;-71
2023/01/15 07:17:57;;;;;;;9.93;1.23;;;;;;;13.26;40.44;99835.56;5065451;28;20611;-71
2023/01/15 07:20:23;;;;;;;13.00;1.83;;;;;;;13.16;40.75;99824.56;5073583;28;20513;-72
2023/01/15 07:22:49;;;;;;;9.97;1.13;;;;;;;12.32;42.17;99826.59;5041236;28;20025;-72
2023/01/15 07:25:15;;;;;;;20.10;1.57;;;;;;;11.67;42.37;99833.81;5055096;28;20028;-74
2023/01/15 07:27:41;;;;;;;5.63;1.07;;;;;;;12.41;41.82;99835.06;5054157;28;20028;-73
2023/01/15 07:30:07;;;;;;;9.27;1.37;;;;;;;12.87;41.16;99839.56;5050876;28;20044;-74
2023/01/15 07:32:32;;;;;;;8.37;1.27;;;;;;;12.44;42.16;99834.94;5050237;28;20081;-74
2023/01/15 07:34:58;;;;;;;14.17;1.33;;;;;;;11.81;42.53;99838.63;5049337;28;20393;-74
2023/01/15 07:37:24;;;;;;;9.43;1.30;;;;;;;12.79;41.23;99840.72;5031155;28;20119;-73
2023/01/15 07:39:50;;;;;;;9.23;1.40;;;;;;;12.76;41.42;99832.97;5031648;28;20160;-73
2023/01/15 07:50:28;;;;;;;6.53;1.30;;;;;;;11.85;43.43;99834.16;5051219;28;20127;-74
2023/01/15 07:52:53;;;;;;;13.20;2.40;;;;;;;12.52;42.76;99843.41;5073104;28;20119;-73
2023/01/15 07:55:21;;;;;;;15.37;1.50;;;;;;;12.80;42.15;99831.97;5057710;28;20468;-73
2023/01/15 07:57:46;;;;;;;7.07;1.60;;;;;;;13.27;41.32;99832.03;5055689;28;20048;-73
2023/01/15 08:00:15;;;;;;;12.57;1.63;;;;;;;12.29;43.15;99836.31;5075742;28;20021;-74
2023/01/15 08:02:40;;;;;;;16.37;3.13;;;;;;;13.45;40.81;99827.00;5052333;28;20029;-73
2023/01/15 08:05:08;;;;;;;6.87;1.83;;;;;;;12.20;43.23;99832.25;5051477;28;20047;-74
2023/01/15 08:07:41;;;;;;;17.73;1.70;;;;;;;12.14;43.02;99827.19;5050494;28;20052;-74
2023/01/15 08:10:08;;;;;;;10.57;2.07;;;;;;;12.18;43.40;99819.16;5038555;28;20551;-73
2023/01/15 08:15:18;;;;;;;14.73;2.13;;;;;;;12.47;43.10;99834.84;5047650;28;20171;-73
2023/01/15 08:17:46;;;;;;;10.87;1.87;;;;;;;13.43;41.72;99831.47;5050048;28;20032;-74
2023/01/15 08:20:23;;;;;;;14.80;1.67;;;;;;;13.58;40.93;99846.66;5049242;28;20029;-74
2023/01/15 08:22:48;;;;;;;12.40;1.57;;;;;;;13.56;41.31;99848.50;5049727;28;20028;-73
2023/01/15 08:25:20;;;;;;;11.13;2.43;;;;;;;13.02;41.95;99842.53;5051317;28;20119;-73
2023/01/15 08:27:46;;;;;;;15.60;1.93;;;;;;;13.04;42.30;99844.22;5042149;28;20162;-74
2023/01/15 08:30:17;;;;;;;14.50;2.87;;;;;;;13.62;41.27;99835.09;5039372;28;20037;-73
2023/01/15 08:32:43;;;;;;;9.67;1.60;;;;;;;12.61;42.90;99836.97;5046791;28;20071;-73
2023/01/15 08:35:09;;;;;;;13.87;2.03;;;;;;;13.37;42.26;99833.41;5050022;28;20696;-74
2023/01/15 08:37:34;;;;;;;10.53;1.97;;;;;;;13.11;43.08;99830.88;5046285;28;20029;-73
2023/01/15 08:40:00;;;;;;;16.40;2.30;;;;;;;13.02;42.74;99822.44;5040443;28;20037;-73
2023/01/15 08:42:25;;;;;;;11.93;1.73;;;;;;;13.42;42.37;99832.38;5038311;28;20029;-74
2023/01/15 08:44:50;;;;;;;12.27;2.23;;;;;;;13.56;41.45;99838.81;5040435;28;20142;-73
2023/01/15 08:47:16;;;;;;;9.87;1.87;;;;;;;14.03;41.25;99837.03;5044385;28;20051;-74
2023/01/15 08:49:42;;;;;;;15.27;2.67;;;;;;;13.66;41.95;99838.50;5044918;28;20021;-74
2023/01/15 08:52:08;;;;;;;8.60;1.37;;;;;;;13.13;42.69;99839.53;5045755;28;20040;-73
2023/01/15 08:54:33;;;;;;;10.87;1.40;;;;;;;13.12;43.00;99849.19;5034149;28;20537;-73
2023/01/15 08:56:59;;;;;;;7.23;1.50;;;;;;;13.27;42.32;99836.41;5044268;28;20500;-74
2023/01/15 08:59:25;;;;;;;11.23;1.73;;;;;;;13.11;42.41;99825.63;5038926;28;20058;-74
2023/01/15 09:01:50;;;;;;;11.93;1.40;;;;;;;12.75;42.52;99839.13;5053319;28;20602;-73
2023/01/15 09:04:18;;;;;;;13.97;2.30;;;;;;;13.57;42.51;99839.66;5043905;28;20108;-73
2023/01/15 09:06:44;;;;;;;7.73;1.40;;;;;;;12.85;43.53;99841.38;5049372;28;20568;-74
2023/01/15 09:09:10;;;;;;;8.67;1.30;;;;;;;12.59;43.73;99829.19;5049197;28;20112;-73
2023/01/15 09:11:35;;;;;;;10.97;2.33;;;;;;;13.55;42.33;99831.84;5049103;28;20098;-73
2023/01/15 09:14:01;;;;;;;11.83;2.00;;;;;;;12.47;43.61;99845.31;5048714;28;20033;-74
2023/01/15 09:16:26;;;;;;;9.43;1.50;;;;;;;13.37;42.38;99825.53;5048775;28;20037;-74
2023/01/15 09:18:53;;;;;;;11.33;2.73;;;;;;;12.58;43.19;99837.94;5047093;28;20028;-73
2023/01/15 09:21:19;;;;;;;14.10;2.23;;;;;;;12.89;43.29;99821.16;5029414;28;20025;-73
2023/01/15 09:23:44;;;;;;;10.57;2.37;;;;;;;13.43;41.85;99841.97;5043696;28;20119;-74
2023/01/15 09:26:31;;;;;;;10.10;1.50;;;;;;;13.52;41.52;99833.75;5049444;28;20115;-74
2023/01/15 09:28:57;;;;;;;9.90;1.27;;;;;;;12.70;42.95;99837.53;5049351;28;20028;-74
2023/01/15 09:31:23;;;;;;;8.40;1.03;;;;;;;12.53;42.51;99839.88;5042896;28;20037;-74
2023/01/15 09:33:49;;;;;;;11.73;1.57;;;;;;;13.58;41.55;99836.13;5044870;28;20036;-73
2023/01/15 09:36:23;;;;;;;7.60;1.20;;;;;;;13.10;41.74;99818.66;5029522;28;20080;-73
2023/01/15 09:38:49;;;;;;;6.90;1.30;;;;;;;13.24;41.61;99855.75;5046271;28;20036;-73
2023/01/15 09:44:10;;;;;;;11.63;1.40;;;;;;;13.72;40.02;99823.34;5049215;28;20047;-74
2023/01/15 09:47:10;;;;;;;18.07;2.07;;;;;;;14.29;39.68;99833.34;5050610;28;20044;-74
2023/01/15 09:49:47;;;;;;;8.60;1.43;;;;;;;14.17;40.30;99831.22;5049100;28;20179;-74
2023/01/15 09:52:24;;;;;;;16.30;1.80;;;;;;;14.37;40.30;99838.25;5046920;28;20037;-73
2023/01/15 09:54:58;;;;;;;12.80;2.77;;;;;;;14.30;41.55;99829.81;5049605;28;20473;-74
2023/01/15 09:57:25;;;;;;;13.93;2.47;;;;;;;14.54;41.10;99837.56;5048177;28;20056;-73
2023/01/15 09:59:53;;;;;;;15.03;1.80;;;;;;;14.79;41.18;99855.81;5049248;28;20053;-74
2023/01/15 10:02:25;;;;;;;16.50;2.30;;;;;;;14.10;43.10;99845.53;5049545;28;20029;-74
2023/01/15 10:05:19;;;;;;;17.33;2.13;;;;;;;14.55;41.81;99849.81;5032372;28;20116;-73
2023/01/15 10:07:55;;;;;;;13.30;2.10;;;;;;;12.94;44.96;99850.72;5042542;28;20037;-73
2023/01/15 10:10:25;;;;;;;22.17;3.73;;;;;;;13.88;44.36;99849.00;5034278;28;20033;-73
2023/01/15 10:12:56;;;;;;;14.27;1.77;;;;;;;13.75;43.87;99838.09;5040428;28;20045;-73
2023/01/15 10:15:34;;;;;;;20.17;2.17;;;;;;;14.60;42.60;99847.81;5042127;28;20037;-74
2023/01/15 10:18:00;;;;;;;12.60;1.80;;;;;;;14.68;41.57;99856.28;5052981;28;20025;-73
2023/01/15 10:20:44;;;;;;;22.80;2.67;;;;;;;13.44;43.43;99854.19;5051913;28;20020;-73
2023/01/15 10:23:19;;;;;;;16.53;1.73;;;;;;;14.18;42.79;99857.44;5052904;28;20489;-74
2023/01/15 10:25:58;;;;;;;13.63;1.90;;;;;;;13.71;43.83;99858.41;5050384;28;20047;-74
2023/01/15 10:29:05;;;;;;;11.80;2.23;;;;;;;14.10;43.03;99869.19;5051823;28;20033;-74
2023/01/15 10:31:30;;;;;;;14.73;1.77;;;;;;;13.73;43.99;99872.31;5051892;28;20043;-74
2023/01/15 10:34:07;;;;;;;13.87;1.80;;;;;;;13.85;43.16;99859.63;5052065;28;20119;-74
2023/01/15 10:36:44;;;;;;;6.00;1.30;;;;;;;13.97;43.16;99876.69;5049903;28;20044;-73
2023/01/15 10:39:18;;;;;;;8.20;1.93;;;;;;;13.69;43.04;99860.22;5032888;28;20063;-74
2023/01/15 10:41:58;;;;;;;8.97;1.83;;;;;;;13.85;42.70;99870.16;5033511;28;20126;-73
2023/01/15 10:44:35;;;;;;;10.77;1.40;;;;;;;14.27;41.15;99877.22;5032535;28;20037;-73
2023/01/15 10:47:02;;;;;;;5.97;1.03;;;;;;;13.00;42.23;99871.47;5036327;28;20062;-73
2023/01/15 10:49:29;;;;;;;6.80;1.60;;;;;;;14.06;40.59;99871.91;5052211;28;20025;-74
2023/01/15 10:52:23;;;;;;;10.37;1.33;;;;;;;14.91;39.40;99878.13;5053757;28;20433;-73
2023/01/15 10:54:59;;;;;;;13.20;2.90;;;;;;;14.66;41.44;99870.41;5030175;28;20056;-74
2023/01/15 10:57:49;;;;;;;12.00;2.03;;;;;;;13.44;43.84;99875.19;5031741;28;20413;-74
2023/01/15 11:00:15;;;;;;;16.37;1.93;;;;;;;13.81;42.78;99871.19;5032060;28;20064;-73
2023/01/15 11:02:46;;;;;;;14.50;1.83;;;;;;;14.26;43.31;99886.03;5031609;28;20021;-73
2023/01/15 11:05:18;;;;;;;10.57;1.50;;;;;;;13.38;44.27;99887.63;5038861;28;20041;-74
2023/01/15 11:07:46;;;;;;;10.75;1.88;;;;;;;14.10;43.70;99879.69;5050718;28;20401;-73
2023/01/15 11:10:14;;;;;;;11.60;2.13;;;;;;;14.03;43.14;99879.91;5053023;28;20056;-73
2023/01/15 11:21:21;;;;;;;13.47;2.23;;;;;;;15.08;41.93;99888.78;5053284;28;20130;-73
2023/01/15 11:23:47;;;;;;;10.67;2.10;;;;;;;14.49;43.12;99881.59;5051400;28;20395;-73
2023/01/15 11:26:28;;;;;;;8.97;1.93;;;;;;;14.18;44.40;99877.63;5051780;28;20040;-73
2023/01/15 11:28:54;;;;;;;13.13;1.77;;;;;;;13.98;44.60;99879.25;5051380;28;20527;-73
2023/01/15 11:31:20;;;;;;;6.10;1.60;;;;;;;14.48;44.23;99874.63;5032741;28;20065;-73
2023/01/15 11:34:01;;;;;;;12.30;2.13;;;;;;;14.04;44.94;99855.38;5031778;28;20135;-73
2023/01/15 11:36:28;;;;;;;11.43;1.80;;;;;;;13.73;44.28;99872.31;5048934;28;20029;-74
2023/01/15 11:38:53;;;;;;;13.37;2.37;;;;;;;14.27;43.83;99864.06;5050821;28;20062;-72
2023/01/15 11:50:42;;;;;;;11.60;1.87;;;;;;;13.32;46.01;99856.31;5052085;28;20032;-73
2023/01/15 11:52:25;;;;;;;18.43;2.30;;;;;;;13.57;48.93;99858.94;5052324;28;20044;-73
2023/01/15 11:54:53;;;;;;;14.60;1.83;;;;;;;12.18;52.63;99882.03;5050078;28;20087;-73
2023/01/15 11:57:28;;;;;;;13.30;2.63;;;;;;;13.23;52.40;99888.16;5039643;28;20037;-73
2023/01/15 11:59:54;;;;;;;12.57;3.33;;;;;;;12.83;53.01;99871.19;5037095;28;20025;-73
2023/01/15 12:02:38;;;;;;;12.43;3.17;;;;;;;13.28;52.84;99882.75;5050913;28;20024;-72
2023/01/15 12:05:05;;;;;;;8.07;1.67;;;;;;;13.36;53.46;99863.19;5049436;28;20468;-73
2023/01/15 12:07:31;;;;;;;14.73;2.20;;;;;;;13.12;55.04;99875.44;5050628;28;20021;-73
2023/01/15 12:11:02;;;;;;;12.40;1.87;;;;;;;13.29;53.78;99871.34;5046399;28;20112;-73
2023/01/15 12:13:29;;;;;;;6.97;1.90;;;;;;;13.22;54.71;99871.53;5031412;28;20116;-73
2023/01/15 12:15:54;;;;;;;10.20;1.93;;;;;;;11.92;56.02;99882.81;5049201;28;20028;-72
2023/01/15 12:18:38;;;;;;;16.10;2.10;;;;;;;12.60;56.12;99891.19;5051098;28;20028;-73
2023/01/15 12:21:08;;;;;;;13.90;1.63;;;;;;;12.25;58.35;99881.84;5051098;28;20124;-73
2023/01/15 12:23:43;;;;;;;14.73;2.37;;;;;;;12.05;60.36;99886.81;5051044;28;20033;-72
2023/01/15 12:26:23;;;;;;;9.17;2.23;;;;;;;13.18;55.69;99880.44;5041860;28;20041;-73